createdAt,value
2019-05-12T00:00:42.183Z,80.90
2019-05-12T00:06:11.448Z,81.50
2019-05-12T00:11:41.027Z,82.20
2019-05-12T00:17:10.275Z,82.40
2019-05-12T00:22:48.147Z,82.70
2019-05-12T00:28:17.955Z,83.40
2019-05-12T00:33:48.067Z,83.30
2019-05-12T00:39:19.087Z,83.40
2019-05-12T00:44:48.552Z,83.60
2019-05-12T00:50:18.432Z,83.60
2019-05-12T00:55:47.774Z,83.70
2019-05-12T01:01:18.369Z,83.90
2019-05-12T01:06:51.961Z,84.20
2019-05-12T01:12:20.584Z,84.60
2019-05-12T01:17:49.839Z,84.50
2019-05-12T01:23:23.056Z,84.50
2019-05-12T01:28:50.093Z,84.70
2019-05-12T01:34:19.352Z,84.60
2019-05-12T01:39:49.228Z,84.90
2019-05-12T01:45:19.835Z,84.80
2019-05-12T01:50:49.399Z,84.80
2019-05-12T01:56:20.409Z,84.90
2019-05-12T02:01:49.656Z,85.00
2019-05-12T02:07:18.951Z,85.30
2019-05-12T02:12:49.136Z,85.20
2019-05-12T02:18:18.563Z,85.20
2019-05-12T02:23:47.936Z,85.30
2019-05-12T02:29:18.301Z,85.60
2019-05-12T02:34:47.731Z,85.60
2019-05-12T02:40:18.373Z,85.60
2019-05-12T02:45:47.723Z,85.90
2019-05-12T02:51:17.512Z,86.10
2019-05-12T02:56:48.419Z,86.20
2019-05-12T03:02:17.846Z,86.20
2019-05-12T03:07:48.987Z,86.40
2019-05-12T03:13:18.261Z,86.50
2019-05-12T03:18:47.529Z,86.50
2019-05-12T03:24:17.629Z,86.60
2019-05-12T03:29:47.136Z,86.90
2019-05-12T03:35:20.317Z,87.20
2019-05-12T03:40:49.562Z,87.20
2019-05-12T03:46:18.838Z,87.40
2019-05-12T03:51:48.095Z,87.50
2019-05-12T03:57:17.368Z,87.40
2019-05-12T04:02:46.719Z,87.70
2019-05-12T04:08:16.279Z,87.80
2019-05-12T04:13:45.539Z,87.80
2019-05-12T04:19:15.082Z,88.10
2019-05-12T04:24:44.660Z,88.30
2019-05-12T04:30:14.687Z,88.40
2019-05-12T04:35:45.174Z,88.40
2019-05-12T04:41:14.833Z,88.80
2019-05-12T04:46:44.988Z,88.90
2019-05-12T04:52:15.566Z,88.60
2019-05-12T04:57:45.321Z,88.70
2019-05-12T05:03:14.586Z,88.70
2019-05-12T05:08:44.407Z,88.60
2019-05-12T05:14:14.422Z,88.40
2019-05-12T05:19:44.149Z,88.50
2019-05-12T05:25:14.441Z,88.40
2019-05-12T05:30:44.259Z,88.50
2019-05-12T05:36:19.458Z,88.30
2019-05-12T05:41:48.875Z,88.20
2019-05-12T05:47:19.765Z,88.40
2019-05-12T05:52:46.650Z,88.30
2019-05-12T05:58:15.912Z,88.20
2019-05-12T06:03:45.246Z,88.10
2019-05-12T06:09:14.503Z,87.90
2019-05-12T06:14:46.736Z,87.90
2019-05-12T06:20:16.751Z,87.80
2019-05-12T06:25:51.363Z,87.60
2019-05-12T06:31:18.997Z,87.50
2019-05-12T06:36:48.168Z,87.30
2019-05-12T06:42:18.405Z,87.00
2019-05-12T06:47:49.624Z,87.10
2019-05-12T06:53:20.363Z,87.40
2019-05-12T06:58:50.177Z,87.00
2019-05-12T07:04:21.263Z,87.00
2019-05-12T07:09:54.210Z,87.50
2019-05-12T07:15:23.295Z,87.00
2019-05-12T07:20:53.765Z,86.90
2019-05-12T07:26:23.623Z,87.00
2019-05-12T07:31:53.676Z,87.00
2019-05-12T07:37:24.750Z,86.90
2019-05-12T07:42:59.389Z,86.80
2019-05-12T07:48:28.825Z,86.90
2019-05-12T07:53:58.969Z,86.80
2019-05-12T07:59:38.925Z,86.90
2019-05-12T08:05:00.654Z,86.90
2019-05-12T08:10:30.060Z,86.80
2019-05-12T08:15:59.337Z,86.70
2019-05-12T08:21:28.608Z,86.80
2019-05-12T08:27:03.136Z,87.00
2019-05-12T08:32:28.966Z,87.00
2019-05-12T08:37:59.277Z,86.80
2019-05-12T08:43:28.553Z,88.10
2019-05-12T08:49:02.238Z,87.30
2019-05-12T08:54:29.855Z,87.30
2019-05-12T09:00:02.851Z,87.30
2019-05-12T09:05:34.551Z,87.10
2019-05-12T09:11:03.540Z,87.20
2019-05-12T09:16:35.538Z,87.80
2019-05-12T09:22:15.995Z,87.20
2019-05-12T09:27:39.625Z,87.20
2019-05-12T09:33:07.033Z,87.30
2019-05-12T09:38:37.293Z,87.10
2019-05-12T09:44:06.997Z,87.10
2019-05-12T09:49:44.453Z,87.10
2019-05-12T09:55:15.954Z,87.10
2019-05-12T10:00:45.863Z,87.20
2019-05-12T10:06:21.133Z,87.20
2019-05-12T10:11:53.965Z,87.30
2019-05-12T10:17:20.350Z,87.20
2019-05-12T10:22:49.857Z,87.40
2019-05-12T10:28:20.116Z,87.30
2019-05-12T10:34:20.768Z,87.40
2019-05-12T10:39:50.198Z,87.50
2019-05-12T10:45:23.863Z,87.20
2019-05-12T10:50:53.697Z,87.50
2019-05-12T10:56:24.018Z,87.30
2019-05-12T11:01:54.085Z,87.10
2019-05-12T11:07:27.980Z,87.20
2019-05-12T11:12:59.261Z,87.50
2019-05-12T11:18:30.583Z,87.10
2019-05-12T11:23:59.851Z,87.40
2019-05-12T11:29:44.859Z,87.30
2019-05-12T11:35:00.361Z,87.40
2019-05-12T11:40:30.610Z,87.50
2019-05-12T11:46:00.809Z,87.20
2019-05-12T11:51:34.079Z,87.00
2019-05-12T11:57:03.977Z,87.20
2019-05-12T12:02:37.085Z,87.10
2019-05-12T12:08:15.374Z,87.20
2019-05-12T12:14:05.564Z,87.00
2019-05-12T12:19:43.539Z,87.20
2019-05-12T12:25:10.689Z,87.20
2019-05-12T12:30:40.633Z,87.50
2019-05-12T12:36:09.973Z,89.10
2019-05-12T12:41:55.248Z,87.80
2019-05-12T12:47:19.323Z,87.20
2019-05-12T12:52:48.984Z,87.10
2019-05-12T12:58:29.479Z,87.10
2019-05-12T13:03:59.192Z,87.00
2019-05-12T13:09:28.702Z,87.10
2019-05-12T13:15:04.629Z,87.70
2019-05-12T13:20:34.897Z,87.20
2019-05-12T13:26:04.439Z,86.80
2019-05-12T13:31:33.762Z,86.90
2019-05-12T13:37:03.448Z,86.60
2019-05-12T13:42:35.822Z,86.50
2019-05-12T13:48:09.538Z,86.10
2019-05-12T13:53:40.279Z,86.80
2019-05-12T13:59:06.907Z,85.90
2019-05-12T14:04:36.170Z,85.70
2019-05-12T14:10:10.936Z,85.70
2019-05-12T14:15:44.292Z,85.60
2019-05-12T14:21:14.086Z,85.60
2019-05-12T14:26:48.057Z,85.70
2019-05-12T14:32:17.280Z,85.60
2019-05-12T14:37:47.585Z,86.20
2019-05-12T14:43:21.908Z,86.50
2019-05-12T14:48:50.771Z,86.00
2019-05-12T14:54:20.056Z,85.40
2019-05-12T14:59:50.291Z,85.40
2019-05-12T15:05:25.231Z,85.10
2019-05-12T15:10:53.466Z,85.10
2019-05-12T15:16:23.799Z,85.30
2019-05-12T15:22:01.512Z,85.50
2019-05-12T15:27:42.333Z,85.60
2019-05-12T15:33:05.701Z,85.90
2019-05-12T15:38:35.035Z,86.00
2019-05-12T15:44:06.583Z,86.30
2019-05-12T15:49:37.471Z,86.10
2019-05-12T15:55:08.821Z,86.10
2019-05-12T16:00:43.341Z,86.10
2019-05-12T16:06:15.195Z,86.10
2019-05-12T16:11:44.460Z,86.30
2019-05-12T16:17:16.899Z,86.00
2019-05-12T16:23:04.261Z,86.80
2019-05-12T16:28:33.862Z,86.10
2019-05-12T16:34:06.126Z,86.00
2019-05-12T16:39:41.822Z,85.70
2019-05-12T16:45:10.117Z,85.70
2019-05-12T16:50:39.962Z,85.60
2019-05-12T16:56:10.372Z,85.60
2019-05-12T17:01:40.242Z,85.70
2019-05-12T17:07:17.042Z,85.30
2019-05-12T17:12:44.047Z,85.60
2019-05-12T17:18:13.730Z,85.90
2019-05-12T17:23:43.055Z,85.90
2019-05-12T17:29:13.871Z,86.00
2019-05-12T17:34:50.398Z,86.00
2019-05-12T17:40:20.531Z,86.00
2019-05-12T17:45:50.471Z,86.20
2019-05-12T17:51:26.821Z,86.10
2019-05-12T17:56:52.190Z,86.40
2019-05-12T18:02:23.681Z,86.40
2019-05-12T18:07:55.512Z,86.60
2019-05-12T18:13:27.985Z,86.30
2019-05-12T18:18:56.244Z,86.60
2019-05-12T18:24:28.571Z,86.40
2019-05-12T18:29:57.993Z,86.00
2019-05-12T18:35:27.339Z,86.30
2019-05-12T18:40:58.418Z,86.20
2019-05-12T18:46:38.691Z,86.20
2019-05-12T18:52:07.013Z,86.40
2019-05-12T18:57:39.213Z,86.40
2019-05-12T19:03:10.302Z,86.60
2019-05-12T19:08:39.676Z,86.60
2019-05-12T19:14:09.174Z,86.60
2019-05-12T19:19:38.538Z,86.70
2019-05-12T19:25:08.798Z,86.70
2019-05-12T19:30:39.295Z,86.90
2019-05-12T19:36:08.719Z,86.90
2019-05-12T19:41:38.253Z,86.90
2019-05-12T19:47:33.587Z,87.20
2019-05-12T19:52:58.240Z,87.20
2019-05-12T19:58:27.636Z,87.30
2019-05-12T20:03:58.087Z,87.20
2019-05-12T20:09:27.602Z,87.80
2019-05-12T20:14:59.072Z,87.20
2019-05-12T20:20:36.565Z,87.30
2019-05-12T20:25:59.441Z,87.50
2019-05-12T20:31:28.820Z,87.50
2019-05-12T20:36:59.092Z,87.60
2019-05-12T20:42:33.935Z,87.70
2019-05-12T20:48:00.663Z,88.50
2019-05-12T20:53:31.781Z,88.10
2019-05-12T20:59:03.636Z,88.20
2019-05-12T21:04:37.487Z,88.30
2019-05-12T21:10:05.832Z,88.40
2019-05-12T21:15:41.145Z,88.40
2019-05-12T21:21:06.606Z,88.50
2019-05-12T21:26:37.887Z,88.90
2019-05-12T21:32:12.335Z,88.80
2019-05-12T21:37:45.552Z,88.70
2019-05-12T21:43:09.831Z,88.70
2019-05-12T21:48:39.305Z,88.70
2019-05-12T21:54:08.862Z,88.90
2019-05-12T21:59:39.763Z,88.80
2019-05-12T22:05:13.943Z,89.00
2019-05-12T22:10:44.536Z,89.00
2019-05-12T22:16:14.314Z,89.00
2019-05-12T22:21:49.247Z,88.90
2019-05-12T22:27:25.493Z,89.00
2019-05-12T22:32:49.170Z,89.10
2019-05-12T22:38:21.005Z,89.20
2019-05-12T22:43:49.834Z,89.30
2019-05-12T22:49:20.987Z,89.30
2019-05-12T22:54:51.061Z,89.30
2019-05-12T23:00:21.742Z,89.50
2019-05-12T23:06:01.267Z,89.60
2019-05-12T23:11:32.008Z,89.90
2019-05-12T23:17:05.782Z,90.00
2019-05-12T23:22:35.151Z,90.00
2019-05-12T23:28:08.419Z,90.00
2019-05-12T23:33:36.744Z,90.00
2019-05-12T23:39:07.975Z,90.10
2019-05-12T23:44:37.410Z,90.20
2019-05-12T23:50:08.841Z,90.30
2019-05-12T23:55:38.443Z,90.30
